Portada
METAR-TAF:

METAR-TAF

Aeropuertos :

Caracas, Venezuela

Aeropuerto Internacional de Maiquetía Simón Bolívar

latitud: 10-36N, longitud: 066-59W, altitud: 43 m

Observación

El informe se hizo hace 44 minutos, a las 18:00 UTC
Viento 6 kt del norte
Temperatura 33°C
Humedad 63%
Presión 1010 hPa
Visibilidad 10 km o más
Escasas nubes a una altura de 1600 ft

METAR: SVMI 171800Z 36006KT 9999 FEW016 33/25 Q1010

Hora: 14:44 (18:44 UTC)

Pronóstico

El informe se hizo hace 2 horas y 44 minutos, a las 16:00 UTC
Pronóstico válido del 17 a las 18 UTC al 18 a las 18 UTC
Viento 10 kt del noreste
Visibilidad 10 km o más
Nubes dispersas a una altura de 1600 ft
Evolucionando progresivamente
del 17 a las 18 UTC al 17 a las 22 UTC
Viento 5 kt del noreste
Escasas nubes a una altura de 1600 ft

TAF: SVMI 171600Z 1718/1818 05010KT 9999 SCT016 TX31/19Z TN23/09Z BECMG 1718/1722 05005KT FEW016

Observaciones y pronósticos meteorológicos de más de 4000 aeropuertos (mensajes METAR y TAF).

Los puntos amarillos y rojos representan las estaciones disponibles.

Ponga el ratón en el punto deseado para ver el nombre de la estación.

Haga clic para ver las observaciones y los pronósticos meteorológicos.

Para cambiar el mapa : haga clic en los botones verdes con una cruz de color negro para hacer un zoom, en el botón verde con un guión para alejar o en las flechas verdes para mapas adyacentes.


METAR-TAF: